Terminal Aerodrome Forecast
Issued by NWS

Home | Current Version | Previous Version | Text Only | Print | Product List | Glossary On
Versions: 1 2 3 4 5 6 7 8 9 10 11 12 13 14 15 16 17 18 19 20 21 22 23 24 25 26 27 28 29 30 31 32
305
FTUS42 KCAE 020952 AAC
TAFOGB
TAF AMD
KOGB 020952Z 0210/0306 VRB03KT 5SM BR BKN012
      TEMPO 0210/0212 1/2SM FG VV002
     FM021500 23008KT P6SM SCT025 BKN050
     FM021800 24010KT P6SM VCSH SCT030 BKN050=

USA.gov is the U.S. government's official web portal to all federal, state and local government web resources and services.